Time;durP1;ratioP1;P1;durP2;ratioP2;P2;SDS_P1;SDS_P2;PMS_P1;PMS_P2;Temp;Humidity;BMP_temperature;BMP_pressure;BME280_temperature;BME280_humidity;BME280_pressure;Samples;Min_cycle;Max_cycle;Signal;HPM_P1;HPM_P2
2021/06/14 00:01:38;;;;;;;1.23;1.10;;;;;;;20.01;68.13;100406.09;4982497;28;102630;-58
2021/06/14 00:04:06;;;;;;;1.10;1.00;;;;;;;20.02;67.78;100406.94;4978228;28;102557;-58
2021/06/14 00:06:33;;;;;;;1.23;0.98;;;;;;;20.02;67.82;100415.22;4978473;28;103578;-58
2021/06/14 00:09:02;;;;;;;1.02;1.00;;;;;;;20.00;67.89;100414.75;4978423;28;102335;-58
2021/06/14 00:11:30;;;;;;;1.15;1.05;;;;;;;20.01;67.72;100413.59;4985911;28;102628;-58
2021/06/14 00:13:57;;;;;;;1.63;0.98;;;;;;;20.01;67.75;100414.38;4985063;28;102738;-58
2021/06/14 00:16:24;;;;;;;0.93;0.82;;;;;;;20.01;67.93;100410.81;4986447;28;104122;-58
2021/06/14 00:18:52;;;;;;;1.10;1.00;;;;;;;20.02;67.62;100415.22;4981598;28;102624;-58
2021/06/14 00:21:21;;;;;;;1.10;1.00;;;;;;;20.01;67.76;100405.31;4974526;28;103223;-58
2021/06/14 00:23:48;;;;;;;1.23;1.00;;;;;;;20.00;68.17;100398.16;4983946;28;102675;-58
2021/06/14 00:26:15;;;;;;;1.00;0.90;;;;;;;19.98;68.08;100394.94;4984842;28;103925;-58
2021/06/14 00:28:42;;;;;;;1.63;1.40;;;;;;;20.00;68.08;100389.88;4984931;28;102481;-60
2021/06/14 00:31:10;;;;;;;2.00;1.15;;;;;;;20.00;67.87;100392.66;4982452;28;102643;-58
2021/06/14 00:33:37;;;;;;;1.17;1.10;;;;;;;20.00;68.12;100393.44;4983616;28;102391;-58
2021/06/14 00:36:06;;;;;;;2.53;0.80;;;;;;;20.00;68.00;100398.16;4981633;28;103857;-58
2021/06/14 00:38:33;;;;;;;0.77;0.77;;;;;;;20.00;68.02;100406.47;4981495;28;102695;-58
2021/06/14 00:41:00;;;;;;;1.08;0.98;;;;;;;20.00;68.02;100400.94;4983523;28;102733;-58
2021/06/14 00:43:26;;;;;;;1.00;0.90;;;;;;;19.99;68.14;100408.41;4988931;28;102896;-59
2021/06/14 00:45:53;;;;;;;0.95;0.85;;;;;;;19.98;68.02;100405.97;4989507;28;103950;-58
2021/06/14 00:48:20;;;;;;;1.95;1.15;;;;;;;19.99;67.83;100400.13;4987863;28;102389;-59
2021/06/14 00:50:49;;;;;;;1.33;1.23;;;;;;;20.00;68.10;100406.47;4984602;28;101977;-59
2021/06/14 00:53:18;;;;;;;;;;;;;;;19.99;68.20;100402.09;4990530;28;102669;-58
2021/06/14 00:55:45;;;;;;;1.75;0.93;;;;;;;19.98;68.27;100400.47;4988587;28;104034;-58
2021/06/14 00:58:12;;;;;;;2.05;1.13;;;;;;;19.98;67.91;100400.47;4977679;28;102406;-58
2021/06/14 01:00:41;;;;;;;1.10;1.00;;;;;;;19.98;68.36;100406.81;4993139;28;102958;-58
2021/06/14 01:03:10;;;;;;;0.93;0.90;;;;;;;19.99;68.20;100407.63;4992215;28;102699;-58
2021/06/14 01:05:38;;;;;;;1.38;0.90;;;;;;;19.98;67.94;100405.97;4987374;28;103675;-59
2021/06/14 01:08:06;;;;;;;1.95;1.00;;;;;;;19.97;68.26;100394.13;4990089;28;102572;-58
2021/06/14 01:10:35;;;;;;;1.20;1.10;;;;;;;19.97;68.07;100387.81;4988710;28;103056;-58
2021/06/14 01:13:11;;;;;;;1.15;1.05;;;;;;;19.96;68.08;100387.00;4990513;28;102323;-58
2021/06/14 01:15:49;;;;;;;1.08;1.00;;;;;;;19.95;68.22;100395.66;4989657;28;104009;-58
2021/06/14 01:18:18;;;;;;;1.02;0.93;;;;;;;19.96;68.06;100391.72;4981149;28;102496;-57
2021/06/14 01:21:00;;;;;;;1.05;1.00;;;;;;;19.93;68.49;100394.00;4983948;28;105999;-58
2021/06/14 01:23:46;;;;;;;1.27;1.00;;;;;;;19.93;68.43;100394.00;4982867;28;102400;-58
2021/06/14 01:26:19;;;;;;;1.17;1.05;;;;;;;19.96;68.05;100397.25;4988361;28;104083;-58
2021/06/14 01:28:50;;;;;;;1.20;1.10;;;;;;;19.94;68.28;100400.34;4976622;28;103373;-58
2021/06/14 01:31:18;;;;;;;0.73;0.73;;;;;;;19.93;67.80;100405.06;4982133;28;102414;-58
2021/06/14 01:33:46;;;;;;;1.35;1.25;;;;;;;19.94;67.96;100405.84;4989495;28;102283;-58
2021/06/14 01:36:16;;;;;;;1.42;1.30;;;;;;;19.93;68.03;100409.78;4978669;28;102921;-58
2021/06/14 01:38:45;;;;;;;1.83;1.15;;;;;;;19.92;67.88;100397.94;4982229;28;102211;-58
2021/06/14 01:41:13;;;;;;;1.38;1.27;;;;;;;19.92;68.16;100395.16;4984225;28;102334;-58
2021/06/14 01:43:41;;;;;;;2.58;1.10;;;;;;;19.95;68.33;100390.13;4984895;28;102128;-58
2021/06/14 01:46:12;;;;;;;1.10;1.00;;;;;;;19.93;68.10;100391.25;4986969;28;103724;-58
2021/06/14 01:48:39;;;;;;;1.80;1.02;;;;;;;19.96;68.10;100400.00;4986203;28;102043;-58
2021/06/14 01:51:08;;;;;;;2.05;1.30;;;;;;;19.96;68.08;100403.56;4983478;28;102432;-58
2021/06/14 01:53:36;;;;;;;1.52;1.27;;;;;;;19.93;68.20;100399.53;4985928;28;102352;-58
2021/06/14 01:56:05;;;;;;;1.23;1.13;;;;;;;19.94;67.93;100392.03;4988321;28;104113;-58
2021/06/14 01:58:34;;;;;;;1.20;1.10;;;;;;;19.93;68.11;100388.47;4981473;28;102366;-58
2021/06/14 02:01:01;;;;;;;1.48;1.10;;;;;;;19.95;67.99;100395.66;4987605;28;102735;-58
2021/06/14 02:03:31;;;;;;;1.20;1.05;;;;;;;19.91;68.10;100393.56;4981099;28;102194;-58
2021/06/14 02:06:00;;;;;;;1.55;1.30;;;;;;;19.91;68.31;100390.78;4984450;28;104380;-58
2021/06/14 02:08:28;;;;;;;1.40;1.30;;;;;;;19.93;68.42;100390.44;5013453;28;101962;-58
2021/06/14 02:10:57;;;;;;;1.30;1.20;;;;;;;19.91;68.33;100388.03;4987382;28;102293;-57
2021/06/14 02:13:25;;;;;;;1.45;1.20;;;;;;;19.92;68.07;100394.38;4982694;28;102495;-58
2021/06/14 02:15:53;;;;;;;1.40;1.30;;;;;;;19.92;68.18;100392.41;4987803;28;103871;-58
2021/06/14 02:18:23;;;;;;;1.75;1.30;;;;;;;19.91;68.10;100392.75;4987072;28;104018;-58
2021/06/14 02:20:52;;;;;;;1.50;1.40;;;;;;;19.90;68.15;100388.38;4987407;28;102176;-58
2021/06/14 02:23:18;;;;;;;1.08;1.08;;;;;;;19.89;68.27;100384.78;4988377;28;102224;-58
2021/06/14 02:25:46;;;;;;;1.27;1.15;;;;;;;19.86;68.27;100388.25;4984005;28;103937;-58
2021/06/14 02:28:13;;;;;;;1.40;1.10;;;;;;;19.87;68.56;100386.28;4983326;28;103419;-57
2021/06/14 02:30:39;;;;;;;1.23;1.13;;;;;;;19.88;68.38;100379.63;4987131;28;102363;-58
2021/06/14 02:33:06;;;;;;;1.45;1.35;;;;;;;19.87;68.24;100389.88;4987580;28;102917;-57
2021/06/14 02:35:32;;;;;;;1.80;1.27;;;;;;;19.88;68.09;100394.25;4985155;28;104053;-58
2021/06/14 02:38:05;;;;;;;1.10;1.00;;;;;;;19.88;68.40;100391.47;4981610;28;102241;-58
2021/06/14 02:40:32;;;;;;;1.75;1.50;;;;;;;19.89;68.28;100387.56;4976283;28;102169;-58
2021/06/14 02:43:00;;;;;;;2.60;1.60;;;;;;;19.87;68.33;100378.81;4989189;28;102577;-59
2021/06/14 02:45:27;;;;;;;1.30;1.20;;;;;;;19.85;68.11;100386.63;4986782;28;103957;-57
2021/06/14 02:47:56;;;;;;;1.57;1.47;;;;;;;19.85;67.96;100386.63;4985761;28;102779;-58
2021/06/14 02:50:24;;;;;;;1.83;1.30;;;;;;;19.86;68.43;100382.72;4977202;28;102232;-58
2021/06/14 02:52:52;;;;;;;1.50;1.40;;;;;;;19.85;68.14;100389.41;4982339;28;102311;-58
2021/06/14 02:55:28;;;;;;;1.10;1.10;;;;;;;19.87;67.88;100395.41;4981807;28;103896;-57
2021/06/14 02:57:57;;;;;;;1.35;1.25;;;;;;;19.87;68.15;100378.00;4982814;28;102727;-58
2021/06/14 03:00:26;;;;;;;2.00;1.80;;;;;;;19.86;68.31;100377.19;4973983;28;102159;-58
2021/06/14 03:02:57;;;;;;;1.65;1.55;;;;;;;19.83;68.05;100361.31;4987501;28;102264;-58
2021/06/14 03:05:24;;;;;;;1.50;1.38;;;;;;;19.83;68.15;100374.31;4986057;28;103916;-58
2021/06/14 03:07:52;;;;;;;1.63;1.52;;;;;;;19.85;68.32;100370.06;4986036;28;102705;-58
2021/06/14 03:10:22;;;;;;;2.47;1.52;;;;;;;19.86;68.41;100384.69;4984425;28;102674;-58
2021/06/14 03:12:51;;;;;;;1.98;1.33;;;;;;;19.87;68.43;100383.50;4988610;28;103269;-58
2021/06/14 03:15:18;;;;;;;2.30;1.48;;;;;;;19.86;68.23;100377.19;4985146;28;104055;-58
2021/06/14 03:17:45;;;;;;;1.80;1.45;;;;;;;19.86;68.22;100374.44;4986183;28;102376;-59
2021/06/14 03:20:13;;;;;;;1.52;1.42;;;;;;;19.85;68.07;100375.59;4982145;28;102241;-58
2021/06/14 03:22:39;;;;;;;1.88;1.30;;;;;;;19.86;68.03;100376.38;4978747;28;102651;-58
2021/06/14 03:25:07;;;;;;;2.03;1.45;;;;;;;19.84;68.03;100375.94;4977182;28;103848;-58
2021/06/14 03:27:35;;;;;;;1.67;1.50;;;;;;;19.85;68.16;100383.06;4987796;28;102621;-58
2021/06/14 03:30:04;;;;;;;1.77;1.52;;;;;;;19.84;68.35;100389.75;4974928;28;102579;-59
2021/06/14 03:32:32;;;;;;;1.83;1.73;;;;;;;19.84;67.92;100396.06;4971825;28;102536;-58
2021/06/14 03:34:59;;;;;;;1.90;1.38;;;;;;;19.84;67.79;100393.31;4983602;28;104456;-58
2021/06/14 03:37:26;;;;;;;1.70;1.45;;;;;;;19.86;68.16;100393.75;4986622;28;103045;-58
2021/06/14 03:39:53;;;;;;;3.53;1.73;;;;;;;19.84;68.14;100396.06;4972839;28;102733;-57
2021/06/14 03:42:20;;;;;;;2.63;1.60;;;;;;;19.85;68.01;100400.44;4984053;28;103566;-58
2021/06/14 03:44:48;;;;;;;3.08;1.63;;;;;;;19.83;67.95;100411.00;4982676;28;104107;-58
2021/06/14 03:47:14;;;;;;;2.17;1.47;;;;;;;19.85;68.07;100414.25;4985558;28;102569;-58
2021/06/14 03:49:41;;;;;;;2.38;1.58;;;;;;;19.85;68.37;100403.19;4983119;28;102488;-58
2021/06/14 03:52:08;;;;;;;1.88;1.70;;;;;;;19.82;68.05;100403.88;4988462;28;102451;-58
2021/06/14 03:54:35;;;;;;;1.80;1.70;;;;;;;19.83;68.32;100416.53;4986164;28;103978;-57
2021/06/14 03:57:02;;;;;;;1.52;1.42;;;;;;;19.84;68.16;100422.88;4982209;28;102662;-58
2021/06/14 03:59:30;;;;;;;1.63;1.50;;;;;;;19.84;67.95;100420.13;4983258;28;102179;-58
2021/06/14 04:01:58;;;;;;;1.40;1.30;;;;;;;19.83;67.78;100416.53;4985578;28;103127;-57
2021/06/14 04:04:40;;;;;;;1.73;1.63;;;;;;;19.82;68.11;100422.41;4983821;28;103025;-59
2021/06/14 04:07:07;;;;;;;2.22;1.80;;;;;;;19.83;67.83;100422.06;4984014;28;102104;-58
2021/06/14 04:09:33;;;;;;;1.40;1.30;;;;;;;19.84;68.12;100422.88;4986653;28;102642;-58
2021/06/14 04:12:00;;;;;;;1.60;1.50;;;;;;;19.82;67.82;100423.22;4986132;28;102299;-58
2021/06/14 04:14:27;;;;;;;2.22;1.70;;;;;;;19.83;68.16;100418.50;4984017;28;103914;-58
2021/06/14 04:16:54;;;;;;;2.13;1.80;;;;;;;19.84;67.95;100420.94;4983401;28;104444;-58
2021/06/14 04:19:22;;;;;;;5.28;1.80;;;;;;;19.84;68.11;100411.84;4988293;28;102572;-59
2021/06/14 04:21:48;;;;;;;3.63;1.90;;;;;;;19.83;68.13;100411.00;4987577;28;102936;-58
2021/06/14 04:24:15;;;;;;;2.22;1.65;;;;;;;19.81;68.38;100407.78;4990684;28;103901;-58
2021/06/14 04:26:48;;;;;;;2.63;1.70;;;;;;;19.80;68.47;100411.72;4987363;28;102245;-58
2021/06/14 04:29:15;;;;;;;2.20;1.60;;;;;;;19.81;68.23;100418.84;4981441;28;103916;-58
2021/06/14 04:31:42;;;;;;;2.85;1.60;;;;;;;19.80;68.45;100411.72;4987920;28;102581;-58
2021/06/14 04:34:08;;;;;;;1.45;1.35;;;;;;;19.81;68.45;100431.84;4985808;28;103876;-58
2021/06/14 04:36:36;;;;;;;2.20;1.70;;;;;;;19.82;68.34;100425.16;4990524;28;102562;-58
2021/06/14 04:39:04;;;;;;;2.17;1.70;;;;;;;19.81;68.12;100440.94;4986240;28;102458;-59
2021/06/14 04:41:31;;;;;;;2.78;1.58;;;;;;;19.83;68.24;100444.16;4985587;28;102268;-58
2021/06/14 04:43:57;;;;;;;2.25;1.50;;;;;;;19.84;68.19;100445.78;4987885;28;103702;-58
2021/06/14 04:46:24;;;;;;;2.10;1.67;;;;;;;22.45;68.03;100450.50;4984439;28;102244;-58
2021/06/14 04:48:51;;;;;;;3.35;1.70;;;;;;;19.84;68.07;100448.53;4973723;28;102418;-58
2021/06/14 04:51:17;;;;;;;2.13;1.92;;;;;;;19.84;67.85;100448.53;4985826;28;102707;-58
2021/06/14 04:53:46;;;;;;;1.80;1.40;;;;;;;19.84;67.80;100442.22;4991239;28;102907;-58
2021/06/14 04:56:13;;;;;;;1.77;1.67;;;;;;;19.85;67.68;100441.88;5005634;28;101562;-58
2021/06/14 04:58:40;;;;;;;1.80;1.70;;;;;;;19.86;67.86;100440.72;4987237;28;102002;-59
2021/06/14 05:01:06;;;;;;;3.00;1.52;;;;;;;19.86;67.68;100443.47;4983652;28;102460;-58
2021/06/14 05:03:33;;;;;;;1.85;1.67;;;;;;;19.86;67.76;100442.66;4986607;28;103667;-58
2021/06/14 05:05:59;;;;;;;1.50;1.40;;;;;;;19.87;68.08;100436.81;4998974;28;102622;-58
2021/06/14 05:08:26;;;;;;;1.73;1.60;;;;;;;19.88;67.89;100438.44;4984474;28;102777;-59
2021/06/14 05:10:54;;;;;;;1.95;1.80;;;;;;;19.88;67.53;100446.72;4984139;28;102936;-59
2021/06/14 05:13:20;;;;;;;1.52;1.42;;;;;;;19.88;67.69;100438.44;4984018;28;103825;-60
2021/06/14 05:15:47;;;;;;;1.77;1.67;;;;;;;19.87;68.07;100428.53;4979681;28;102058;-62
2021/06/14 05:18:13;;;;;;;1.70;1.60;;;;;;;19.85;67.67;100416.22;4979602;28;102480;-62
2021/06/14 05:20:41;;;;;;;1.85;1.75;;;;;;;19.85;68.04;100403.19;4986747;28;102456;-60
2021/06/14 05:23:07;;;;;;;2.47;1.73;;;;;;;19.83;67.90;100419.28;4984499;28;103898;-59
2021/06/14 05:25:35;;;;;;;2.15;1.95;;;;;;;19.84;68.15;100431.16;4978794;28;102481;-60
2021/06/14 05:28:04;;;;;;;2.42;2.20;;;;;;;19.84;68.23;100445.78;4988155;28;103127;-59
2021/06/14 05:30:31;;;;;;;3.80;2.25;;;;;;;19.70;67.57;100459.06;4989945;28;103629;-64
2021/06/14 05:32:59;;;;;;;4.82;2.13;;;;;;;19.70;67.44;100461.84;4988478;28;103068;-61
2021/06/14 05:35:25;;;;;;;5.75;2.47;;;;;;;19.65;66.99;100465.63;4989892;28;102137;-60
2021/06/14 05:37:52;;;;;;;7.13;2.40;;;;;;;19.56;67.26;100478.66;4988857;28;102671;-59
2021/06/14 05:40:20;;;;;;;15.85;2.90;;;;;;;19.44;67.75;100464.81;4989511;28;102612;-60
2021/06/14 05:42:48;;;;;;;9.90;2.75;;;;;;;19.40;67.13;100461.06;4985988;28;103934;-60
2021/06/14 05:45:17;;;;;;;12.32;2.40;;;;;;;19.40;66.99;100459.16;4979383;28;103572;-59
2021/06/14 05:47:43;;;;;;;7.97;2.53;;;;;;;19.39;67.39;100468.53;4980250;28;102245;-60
2021/06/14 05:50:12;;;;;;;7.03;2.13;;;;;;;19.41;66.87;100469.03;4987170;28;102704;-60
2021/06/14 05:52:39;;;;;;;5.47;2.57;;;;;;;19.42;66.92;100469.84;4979904;28;103919;-60
2021/06/14 05:55:07;;;;;;;7.10;2.22;;;;;;;19.36;67.63;100477.50;4984959;28;102469;-60
2021/06/14 05:57:34;;;;;;;3.58;2.13;;;;;;;19.35;67.05;100473.13;4987876;28;102088;-60
2021/06/14 06:00:00;;;;;;;3.63;1.88;;;;;;;19.26;67.28;100477.91;4974730;28;104099;-60
2021/06/14 06:02:28;;;;;;;4.32;2.25;;;;;;;19.19;67.03;100475.69;4978973;28;103884;-60
2021/06/14 06:04:55;;;;;;;4.13;1.85;;;;;;;19.15;67.21;100473.94;4980937;28;102570;-60
2021/06/14 06:07:22;;;;;;;3.22;2.10;;;;;;;19.17;67.09;100477.97;4981413;28;103111;-60
2021/06/14 06:09:48;;;;;;;6.45;2.28;;;;;;;19.10;67.70;100476.88;4983267;28;102894;-60
2021/06/14 06:12:15;;;;;;;2.95;1.90;;;;;;;19.09;67.85;100475.28;4983920;28;103940;-62
2021/06/14 06:14:41;;;;;;;27.40;3.58;;;;;;;18.88;68.28;100492.56;4982796;28;102960;-59
2021/06/14 06:17:08;;;;;;;4.40;1.98;;;;;;;18.95;68.19;100492.06;4981982;28;102371;-59
2021/06/14 06:19:36;;;;;;;4.55;2.35;;;;;;;18.90;67.79;100497.78;4984463;28;102386;-60
2021/06/14 06:22:03;;;;;;;2.67;1.80;;;;;;;18.99;67.30;100492.19;4985641;28;103747;-59
2021/06/14 06:24:30;;;;;;;4.20;2.13;;;;;;;18.99;67.72;100484.72;4985027;28;102023;-59
2021/06/14 06:26:58;;;;;;;4.25;2.22;;;;;;;19.01;67.86;100484.41;4983538;28;102583;-59
2021/06/14 06:29:24;;;;;;;4.18;2.25;;;;;;;19.03;67.58;100493.16;4986344;28;102191;-60
2021/06/14 06:31:51;;;;;;;4.28;2.35;;;;;;;18.90;67.42;100484.00;4983007;28;103910;-60
2021/06/14 06:34:17;;;;;;;6.47;2.25;;;;;;;19.00;67.35;100471.75;4983734;28;102368;-60
2021/06/14 06:36:47;;;;;;;5.35;2.03;;;;;;;19.00;67.75;100478.06;4986986;28;102231;-60
2021/06/14 06:39:13;;;;;;;3.38;2.20;;;;;;;18.93;67.68;100478.63;4987697;28;102397;-58
2021/06/14 06:41:40;;;;;;;5.00;2.20;;;;;;;18.91;67.36;100486.41;4986248;28;103963;-59
2021/06/14 06:44:09;;;;;;;3.70;1.90;;;;;;;18.87;67.84;100496.50;4984062;28;102152;-59
2021/06/14 06:46:36;;;;;;;2.17;1.83;;;;;;;18.89;67.73;100496.94;4981735;28;102395;-59
2021/06/14 06:49:02;;;;;;;3.10;2.08;;;;;;;18.84;67.87;100504.63;4985625;28;103263;-59
2021/06/14 06:51:29;;;;;;;2.65;1.90;;;;;;;18.91;68.01;100508.47;4984818;28;104155;-59
2021/06/14 06:54:12;;;;;;;10.05;2.53;;;;;;;18.91;67.74;100510.41;4985455;28;102424;-58
2021/06/14 06:56:41;;;;;;;3.42;2.00;;;;;;;18.91;68.08;100508.47;4983850;28;102470;-59
2021/06/14 06:59:07;;;;;;;4.45;2.05;;;;;;;18.95;68.21;100509.41;4987178;28;102136;-59
2021/06/14 07:01:34;;;;;;;5.60;2.13;;;;;;;18.89;68.78;100512.69;4980531;28;103851;-59
2021/06/14 07:04:00;;;;;;;5.20;2.33;;;;;;;18.92;67.81;100512.03;4981922;28;102576;-58
2021/06/14 07:06:27;;;;;;;4.60;2.70;;;;;;;18.94;68.18;100520.78;4980620;28;102449;-59
2021/06/14 07:08:57;;;;;;;5.30;2.30;;;;;;;18.95;68.09;100514.13;4980185;28;102858;-59
2021/06/14 07:11:24;;;;;;;3.72;2.63;;;;;;;18.91;67.81;100513.97;4979010;28;103952;-59
2021/06/14 07:13:50;;;;;;;6.15;3.05;;;;;;;18.93;67.97;100522.75;4985044;28;104063;-59
2021/06/14 07:16:17;;;;;;;4.07;2.40;;;;;;;19.01;68.45;100528.53;4984223;28;102543;-59
2021/06/14 07:18:44;;;;;;;6.55;2.95;;;;;;;19.03;68.21;100532.56;4983846;28;102210;-59
2021/06/14 07:21:12;;;;;;;7.05;2.70;;;;;;;19.03;68.55;100532.56;4981958;28;104031;-59
2021/06/14 07:23:39;;;;;;;8.15;2.95;;;;;;;19.00;68.30;100526.91;4978725;28;102825;-59
2021/06/14 07:26:08;;;;;;;8.93;2.88;;;;;;;18.98;67.97;100529.19;4980841;28;104021;-59
2021/06/14 07:28:35;;;;;;;10.43;2.70;;;;;;;18.96;67.93;100530.31;4981234;28;102494;-59
2021/06/14 07:31:02;;;;;;;4.80;2.33;;;;;;;18.94;68.34;100540.09;4982232;28;103684;-59
2021/06/14 07:33:28;;;;;;;3.75;2.45;;;;;;;18.91;68.13;100535.22;4982075;28;103212;-59
2021/06/14 07:35:56;;;;;;;7.40;2.30;;;;;;;18.95;68.16;100536.19;4978399;28;104558;-59
2021/06/14 07:38:23;;;;;;;5.35;2.20;;;;;;;18.93;67.82;100539.28;4990708;28;102612;-59
2021/06/14 07:40:50;;;;;;;4.13;2.00;;;;;;;18.84;68.53;100545.97;4982246;28;104369;-59
2021/06/14 07:43:18;;;;;;;4.22;2.25;;;;;;;18.91;68.38;100538.78;4980538;28;102617;-59
2021/06/14 07:45:47;;;;;;;3.47;1.85;;;;;;;18.90;68.24;100539.13;4982469;28;102416;-59
2021/06/14 07:48:14;;;;;;;3.58;2.00;;;;;;;18.85;67.38;100537.34;4983524;28;102522;-59
2021/06/14 07:50:42;;;;;;;8.13;2.63;;;;;;;18.85;68.44;100537.34;4979871;28;104143;-59
2021/06/14 07:53:09;;;;;;;4.22;1.90;;;;;;;18.97;67.80;100539.44;4981608;28;102801;-59
2021/06/14 07:55:36;;;;;;;4.03;1.73;;;;;;;18.87;67.44;100542.56;4984078;28;103374;-59
2021/06/14 07:58:04;;;;;;;4.25;1.80;;;;;;;18.86;68.42;100549.19;4982290;28;102541;-58
2021/06/14 08:00:32;;;;;;;3.70;1.70;;;;;;;18.87;67.87;100551.63;4981630;28;103904;-59
2021/06/14 08:02:59;;;;;;;4.97;1.80;;;;;;;18.91;67.49;100557.28;4983278;28;102738;-58
2021/06/14 08:05:26;;;;;;;1.80;1.55;;;;;;;18.83;67.71;100547.91;4989011;28;102760;-59
2021/06/14 08:07:52;;;;;;;3.33;1.55;;;;;;;18.82;67.08;100559.25;4989406;28;102399;-59
2021/06/14 08:10:20;;;;;;;1.58;1.48;;;;;;;18.90;67.44;100570.28;4984238;28;103920;-58
2021/06/14 08:12:50;;;;;;;3.75;1.60;;;;;;;18.95;67.69;100566.50;4985253;28;103071;-59
2021/06/14 08:15:18;;;;;;;1.80;1.40;;;;;;;18.95;67.23;100564.56;4985528;28;102324;-59
2021/06/14 08:17:48;;;;;;;2.58;1.40;;;;;;;19.00;67.12;100560.00;4986239;28;102578;-59
2021/06/14 08:25:46;;;;;;;3.92;1.20;;;;;;;19.03;67.33;100559.34;4985410;28;102429;-58
2021/06/14 08:28:12;;;;;;;4.38;1.67;;;;;;;19.02;67.39;100561.28;4982621;28;102871;-58
2021/06/14 08:30:39;;;;;;;2.15;1.80;;;;;;;19.03;66.76;100562.09;4982576;28;104352;-58
2021/06/14 08:33:08;;;;;;;3.92;1.90;;;;;;;19.06;66.74;100553.16;4987672;28;102536;-58
2021/06/14 08:35:35;;;;;;;2.45;1.30;;;;;;;19.07;67.24;100557.53;4985418;28;102779;-58
2021/06/14 08:38:02;;;;;;;1.52;1.30;;;;;;;19.11;67.46;100567.59;5006742;28;102854;-58
2021/06/14 08:40:31;;;;;;;4.60;1.45;;;;;;;19.11;67.11;100572.28;4993948;28;103851;-58
2021/06/14 08:43:04;;;;;;;;;;;;;;;19.11;66.97;100573.09;4987045;28;102867;-59
2021/06/14 08:45:33;;;;;;;2.05;1.50;;;;;;;19.11;67.19;100589.66;4980303;28;102648;-59
2021/06/14 08:48:01;;;;;;;1.70;1.60;;;;;;;19.09;67.00;100588.34;4982320;28;102421;-58
2021/06/14 08:50:29;;;;;;;2.65;1.40;;;;;;;19.13;66.94;100590.13;4983617;28;105310;-58
2021/06/14 08:52:56;;;;;;;3.53;1.30;;;;;;;19.02;66.88;100596.34;4984787;28;104894;-58
2021/06/14 08:55:23;;;;;;;1.88;1.20;;;;;;;18.96;66.51;100593.75;4982356;28;102944;-58
2021/06/14 08:57:50;;;;;;;1.75;1.40;;;;;;;18.96;67.38;100599.25;4984783;28;103092;-58
2021/06/14 09:00:20;;;;;;;5.07;1.75;;;;;;;19.04;67.27;100599.56;4981323;28;103155;-58
2021/06/14 09:02:46;;;;;;;3.20;1.75;;;;;;;19.06;67.01;100594.53;4982062;28;103054;-59
2021/06/14 09:05:16;;;;;;;1.33;1.23;;;;;;;18.99;67.22;100600.56;4985466;28;102275;-59
2021/06/14 09:07:44;;;;;;;25.40;3.38;;;;;;;19.00;66.92;100599.41;4986718;28;105745;-58
2021/06/14 09:10:25;;;;;;;5.05;1.90;;;;;;;19.03;67.07;100604.28;4980593;28;104087;-58
2021/06/14 09:12:52;;;;;;;4.18;1.98;;;;;;;19.00;66.65;100604.13;4988317;28;102005;-58
2021/06/14 09:15:24;;;;;;;3.00;1.63;;;;;;;19.05;67.19;100602.00;4989787;28;102680;-57
2021/06/14 09:17:53;;;;;;;7.05;2.17;;;;;;;19.11;67.30;100599.84;4985334;28;102610;-58
2021/06/14 09:20:19;;;;;;;18.48;2.70;;;;;;;19.06;67.19;100608.31;4981976;28;104096;-59
2021/06/14 09:22:47;;;;;;;20.80;2.75;;;;;;;19.13;67.09;100603.91;4982393;28;102027;-60
2021/06/14 09:25:16;;;;;;;7.43;2.00;;;;;;;19.21;66.82;100605.00;4987547;28;102143;-59
2021/06/14 09:27:44;;;;;;;10.45;2.28;;;;;;;19.23;66.77;100594.47;4989952;28;102224;-59
2021/06/14 09:30:14;;;;;;;5.65;1.83;;;;;;;19.26;67.00;100599.31;4980476;28;103732;-60
2021/06/14 09:32:57;;;;;;;5.22;1.83;;;;;;;19.31;66.88;100588.06;4985077;28;103049;-60
2021/06/14 09:35:26;;;;;;;3.00;1.38;;;;;;;19.32;66.43;100586.13;4983966;28;102394;-60
2021/06/14 09:38:00;;;;;;;2.95;1.20;;;;;;;19.35;66.94;100589.03;4990921;28;102410;-60
2021/06/14 09:40:33;;;;;;;1.92;1.50;;;;;;;19.39;66.47;100589.97;4981082;28;103962;-60
2021/06/14 09:43:00;;;;;;;7.25;1.38;;;;;;;19.37;66.80;100597.78;4982255;28;102204;-60
2021/06/14 09:45:27;;;;;;;2.63;1.20;;;;;;;19.39;66.33;100595.50;4985123;28;102597;-62
2021/06/14 09:47:55;;;;;;;3.47;1.15;;;;;;;19.37;66.13;100603.31;4986385;28;102780;-60
2021/06/14 09:50:26;;;;;;;2.70;1.02;;;;;;;19.36;65.44;100611.91;4986635;28;104299;-60
2021/06/14 09:53:10;;;;;;;2.00;1.00;;;;;;;19.23;66.25;100616.53;4985663;28;102857;-59
2021/06/14 09:55:38;;;;;;;1.55;1.33;;;;;;;19.29;66.28;100612.41;4982257;28;103236;-60
2021/06/14 09:58:18;;;;;;;2.90;1.23;;;;;;;19.29;66.46;100611.63;4989614;28;103777;-60
2021/06/14 10:00:47;;;;;;;2.60;1.38;;;;;;;19.27;66.04;100614.72;4983286;28;104024;-59
2021/06/14 10:03:13;;;;;;;3.20;1.25;;;;;;;19.30;66.58;100611.28;4990801;28;102088;-60
2021/06/14 10:05:44;;;;;;;1.45;1.30;;;;;;;19.31;66.50;100614.88;4985302;28;103526;-60
2021/06/14 10:08:13;;;;;;;2.97;1.45;;;;;;;19.30;66.01;100614.06;4988825;28;102586;-60
2021/06/14 10:11:06;;;;;;;1.55;1.38;;;;;;;19.29;66.33;100617.94;4978582;28;104048;-59
2021/06/14 10:13:34;;;;;;;2.20;1.02;;;;;;;19.27;66.33;100623.00;4984653;28;102193;-60
2021/06/14 10:16:04;;;;;;;1.45;1.10;;;;;;;19.29;66.36;100626.22;4983629;28;102479;-59
2021/06/14 10:18:34;;;;;;;1.77;1.27;;;;;;;19.31;66.52;100618.44;4988008;28;102415;-61
2021/06/14 10:21:01;;;;;;;2.08;1.30;;;;;;;19.25;66.54;100614.22;4984169;28;103575;-59
2021/06/14 10:23:29;;;;;;;2.38;1.20;;;;;;;19.31;66.42;100615.66;4982185;28;102474;-59
2021/06/14 10:25:57;;;;;;;1.97;1.30;;;;;;;19.29;67.04;100606.91;4978188;28;102385;-59
2021/06/14 10:28:24;;;;;;;1.43;1.33;;;;;;;19.37;67.01;100625.38;4985700;28;102689;-59
2021/06/14 10:30:52;;;;;;;2.20;1.00;;;;;;;19.34;66.76;100615.00;4976498;28;103909;-59
2021/06/14 10:33:22;;;;;;;2.50;1.17;;;;;;;19.36;66.44;100620.97;4980153;28;102471;-58
2021/06/14 10:35:54;;;;;;;13.88;2.00;;;;;;;19.39;66.60;100628.59;4981340;28;103362;-59
2021/06/14 10:38:22;;;;;;;4.32;1.10;;;;;;;19.37;66.75;100630.91;4986379;28;102497;-59
2021/06/14 10:40:52;;;;;;;1.67;1.08;;;;;;;19.41;67.02;100631.84;4982658;28;104273;-58
2021/06/14 10:43:24;;;;;;;5.97;1.13;;;;;;;19.42;67.03;100622.41;4987354;28;102298;-60
2021/06/14 10:45:53;;;;;;;2.70;1.20;;;;;;;19.45;66.75;100624.53;4986399;28;102474;-57
2021/06/14 10:48:29;;;;;;;3.90;1.10;;;;;;;19.49;66.99;100619.13;4981304;28;102364;-57
2021/06/14 10:50:57;;;;;;;9.43;1.30;;;;;;;19.51;66.76;100616.88;4974619;28;103937;-58
2021/06/14 10:53:25;;;;;;;2.75;1.50;;;;;;;19.54;66.99;100618.13;4980472;28;103218;-57
2021/06/14 10:55:54;;;;;;;5.10;1.50;;;;;;;19.54;66.92;100612.59;4981030;28;103644;-57
2021/06/14 10:58:21;;;;;;;;;;;;;;;19.55;67.04;100605.97;4982445;28;102679;-57
2021/06/14 11:00:59;;;;;;;2.63;1.45;;;;;;;19.55;67.28;100605.97;4976227;28;103854;-58
2021/06/14 11:03:40;;;;;;;5.43;1.60;;;;;;;19.56;67.35;100607.56;4982080;28;102314;-57
2021/06/14 11:06:18;;;;;;;3.10;1.35;;;;;;;19.59;66.92;100610.47;4979085;28;103153;-59
2021/06/14 11:08:57;;;;;;;4.15;1.60;;;;;;;19.59;66.95;100612.44;4984934;28;102860;-59
2021/06/14 11:11:25;;;;;;;10.82;1.80;;;;;;;19.59;67.08;100606.91;4982212;28;104332;-59
2021/06/14 11:13:53;;;;;;;10.30;2.20;;;;;;;19.57;66.63;100611.94;4984919;28;103038;-58
2021/06/14 11:16:21;;;;;;;7.20;1.45;;;;;;;19.57;67.11;100600.91;4985012;28;102738;-58
2021/06/14 11:18:53;;;;;;;2.35;1.25;;;;;;;19.57;66.91;100601.72;4986522;28;102900;-58
2021/06/14 11:21:21;;;;;;;3.40;0.90;;;;;;;19.58;66.61;100600.59;4981076;28;103969;-59
2021/06/14 11:23:49;;;;;;;3.38;1.20;;;;;;;19.60;66.82;100594.72;4981707;28;102394;-59
2021/06/14 11:26:27;;;;;;;4.88;1.15;;;;;;;19.61;66.66;100607.38;4981151;28;102547;-59
2021/06/14 11:28:54;;;;;;;4.65;1.08;;;;;;;19.60;66.63;100606.56;4977495;28;102962;-58